PWSweather.com
Personal Weather Stations
Station Observations
ESTGRALPAZ
Santa Fe, Santa FeAR 3000

Santa FeSanta FeAR 3000

Lat: -31.6280555556, Lon: -60.6908333333

Elevation: 69

Station Type: WH1081

http://www.estaciongralpaz.com.ar

Latest ConditionsUpdated 1:05:03 AM GMT-03:57 Wednesday, Aug 21, 2019
Currently Today's Max Today's Min Today's Average
Temperature 48.0°F8.9°C 49.8°F9.9°C 48.0°F8.9°C 49.0°F9.4°C
Dew Point 39.4°F4.1°C 39.7°F4.3°C 38.8°F3.8°C 39.2°F4.0°C
Winds 3.1 mph E5.0 kmh E 6.9 mph -11.1 kmh - - 3.8 mph 6.1 kmh
Wind Gusts 9.8 mph15.8 kmh 9.8 mph15.8 kmh - -
Humidity 72% 72% 67% 69%
Pressure 30.27 in1025.1 mb 30.27 in1025.1 mb 30.25 in1024.4 mb -
Hour Temp Dew Point Humidity Winds Wind Gusts Pressure Precip Precip Rate Daily Precip Total
01:05 AM 48.0°F8.9°C 39.4°F4.1°C 72% 3.1 mph E5.0 kmh E 9.8 mph15.8 kmh 30.27 in1025.1 mb 0.00 in0.0 mm 0.00 in0.0 mm 0.00 in0.0 mm
01:04 AM 48.2°F9.0°C 39.2°F4.0°C 71% 3.1 mph E5.0 kmh E 9.8 mph15.8 kmh 30.27 in1025.1 mb 0.00 in0.0 mm 0.00 in0.0 mm 0.00 in0.0 mm
01:03 AM 48.2°F9.0°C 39.2°F4.0°C 71% 3.8 mph E6.1 kmh E 9.8 mph15.8 kmh 30.27 in1025.1 mb 0.00 in0.0 mm 0.00 in0.0 mm 0.00 in0.0 mm
01:02 AM 48.2°F9.0°C 38.9°F3.8°C 70% 3.8 mph E6.1 kmh E 9.8 mph15.8 kmh 30.27 in1025.1 mb 0.00 in0.0 mm 0.00 in0.0 mm 0.00 in0.0 mm
01:01 AM 48.2°F9.0°C 38.9°F3.8°C 70% 1.6 mph E2.6 kmh E 9.8 mph15.8 kmh 30.27 in1025.1 mb 0.00 in0.0 mm 0.00 in0.0 mm 0.00 in0.0 mm
01:00 AM 48.2°F9.0°C 38.9°F3.8°C 70% 4.5 mph E7.2 kmh E 9.8 mph15.8 kmh 30.26 in1024.7 mb 0.00 in0.0 mm 0.00 in0.0 mm 0.00 in0.0 mm
12:59 AM 48.4°F9.1°C 39.1°F3.9°C 70% 3.8 mph E6.1 kmh E 7.6 mph12.2 kmh 30.27 in1025.1 mb 0.00 in0.0 mm 0.00 in0.0 mm 0.00 in0.0 mm
12:58 AM 48.4°F9.1°C 39.1°F3.9°C 70% 3.8 mph E6.1 kmh E 7.6 mph12.2 kmh 30.27 in1025.1 mb 0.00 in0.0 mm 0.00 in0.0 mm 0.00 in0.0 mm
12:57 AM 48.4°F9.1°C 39.1°F3.9°C 70% 2.2 mph E3.5 kmh E 7.6 mph12.2 kmh 30.26 in1024.7 mb 0.00 in0.0 mm 0.00 in0.0 mm 0.00 in0.0 mm
12:56 AM 48.4°F9.1°C 39.1°F3.9°C 70% 3.8 mph E6.1 kmh E 7.6 mph12.2 kmh 30.26 in1024.7 mb 0.00 in0.0 mm 0.00 in0.0 mm 0.00 in0.0 mm
12:55 AM 48.4°F9.1°C 39.1°F3.9°C 70% 3.8 mph E6.1 kmh E 7.6 mph12.2 kmh 30.27 in1025.1 mb 0.00 in0.0 mm 0.00 in0.0 mm 0.00 in0.0 mm
12:54 AM 48.4°F9.1°C 39.1°F3.9°C 70% 4.5 mph E7.2 kmh E 7.6 mph12.2 kmh 30.27 in1025.1 mb 0.00 in0.0 mm 0.00 in0.0 mm 0.00 in0.0 mm
12:53 AM 48.6°F9.2°C 39.2°F4.0°C 70% 2.2 mph E3.5 kmh E 7.6 mph12.2 kmh 30.27 in1025.1 mb 0.00 in0.0 mm 0.00 in0.0 mm 0.00 in0.0 mm
12:52 AM 48.6°F9.2°C 39.2°F4.0°C 70% 4.5 mph E7.2 kmh E 7.6 mph12.2 kmh 30.26 in1024.7 mb 0.00 in0.0 mm 0.00 in0.0 mm 0.00 in0.0 mm
12:51 AM 48.6°F9.2°C 38.9°F3.8°C 69% 3.8 mph E6.1 kmh E 7.6 mph12.2 kmh 30.26 in1024.7 mb 0.00 in0.0 mm 0.00 in0.0 mm 0.00 in0.0 mm
12:50 AM 48.6°F9.2°C 38.9°F3.8°C 69% 3.8 mph E6.1 kmh E 7.6 mph12.2 kmh 30.26 in1024.7 mb 0.00 in0.0 mm 0.00 in0.0 mm 0.00 in0.0 mm
12:49 AM 48.6°F9.2°C 38.9°F3.8°C 69% 5.4 mph E8.7 kmh E 7.6 mph12.2 kmh 30.26 in1024.7 mb 0.00 in0.0 mm 0.00 in0.0 mm 0.00 in0.0 mm
12:48 AM 48.6°F9.2°C 38.9°F3.8°C 69% 3.1 mph E5.0 kmh E 7.6 mph12.2 kmh 30.26 in1024.7 mb 0.00 in0.0 mm 0.00 in0.0 mm 0.00 in0.0 mm
12:47 AM 48.6°F9.2°C 38.9°F3.8°C 69% 4.5 mph E7.2 kmh E 7.6 mph12.2 kmh 30.27 in1025.1 mb 0.00 in0.0 mm 0.00 in0.0 mm 0.00 in0.0 mm
12:46 AM 48.6°F9.2°C 38.9°F3.8°C 69% 4.5 mph E7.2 kmh E 8.3 mph13.4 kmh 30.26 in1024.7 mb 0.00 in0.0 mm 0.00 in0.0 mm 0.00 in0.0 mm
12:45 AM 48.6°F9.2°C 38.9°F3.8°C 69% 3.8 mph E6.1 kmh E 9.2 mph14.8 kmh 30.27 in1025.1 mb 0.00 in0.0 mm 0.00 in0.0 mm 0.00 in0.0 mm
12:44 AM 48.7°F9.3°C 39.0°F3.9°C 69% 3.8 mph E6.1 kmh E 9.2 mph14.8 kmh 30.26 in1024.7 mb 0.00 in0.0 mm 0.00 in0.0 mm 0.00 in0.0 mm
12:43 AM 48.7°F9.3°C 39.0°F3.9°C 69% 3.1 mph E5.0 kmh E 9.2 mph14.8 kmh 30.26 in1024.7 mb 0.00 in0.0 mm 0.00 in0.0 mm 0.00 in0.0 mm
12:42 AM 48.7°F9.3°C 39.0°F3.9°C 69% 3.1 mph E5.0 kmh E 9.2 mph14.8 kmh 30.26 in1024.7 mb 0.00 in0.0 mm 0.00 in0.0 mm 0.00 in0.0 mm
12:41 AM 48.7°F9.3°C 39.0°F3.9°C 69% 4.5 mph E7.2 kmh E 9.2 mph14.8 kmh 30.26 in1024.7 mb 0.00 in0.0 mm 0.00 in0.0 mm 0.00 in0.0 mm
12:40 AM 48.7°F9.3°C 39.0°F3.9°C 69% 3.8 mph E6.1 kmh E 9.2 mph14.8 kmh 30.27 in1025.1 mb 0.00 in0.0 mm 0.00 in0.0 mm 0.00 in0.0 mm
12:39 AM 48.9°F9.4°C 39.2°F4.0°C 69% 3.8 mph ESE6.1 kmh ESE 9.2 mph14.8 kmh 30.26 in1024.7 mb 0.00 in0.0 mm 0.00 in0.0 mm 0.00 in0.0 mm
12:38 AM 48.9°F9.4°C 39.2°F4.0°C 69% 3.8 mph ESE6.1 kmh ESE 9.2 mph14.8 kmh 30.26 in1024.7 mb 0.00 in0.0 mm 0.00 in0.0 mm 0.00 in0.0 mm
12:37 AM 48.9°F9.4°C 39.2°F4.0°C 69% 2.2 mph ESE3.5 kmh ESE 9.2 mph14.8 kmh 30.26 in1024.7 mb 0.00 in0.0 mm 0.00 in0.0 mm 0.00 in0.0 mm
12:36 AM 48.9°F9.4°C 39.2°F4.0°C 69% 5.4 mph ESE8.7 kmh ESE 9.2 mph14.8 kmh 30.26 in1024.7 mb 0.00 in0.0 mm 0.00 in0.0 mm 0.00 in0.0 mm
12:35 AM 48.9°F9.4°C 39.2°F4.0°C 69% 3.8 mph E6.1 kmh E 8.3 mph13.4 kmh 30.26 in1024.7 mb 0.00 in0.0 mm 0.00 in0.0 mm 0.00 in0.0 mm
12:34 AM 48.9°F9.4°C 39.2°F4.0°C 69% 3.8 mph E6.1 kmh E 8.3 mph13.4 kmh 30.26 in1024.7 mb 0.00 in0.0 mm 0.00 in0.0 mm 0.00 in0.0 mm
12:33 AM 48.9°F9.4°C 38.8°F3.8°C 68% 3.8 mph E6.1 kmh E 8.3 mph13.4 kmh 30.25 in1024.4 mb 0.00 in0.0 mm 0.00 in0.0 mm 0.00 in0.0 mm
12:32 AM 49.1°F9.5°C 39.0°F3.9°C 68% 3.8 mph E6.1 kmh E 8.3 mph13.4 kmh 30.26 in1024.7 mb 0.00 in0.0 mm 0.00 in0.0 mm 0.00 in0.0 mm
12:31 AM 49.1°F9.5°C 39.0°F3.9°C 68% 3.1 mph E5.0 kmh E 8.3 mph13.4 kmh 30.26 in1024.7 mb 0.00 in0.0 mm 0.00 in0.0 mm 0.00 in0.0 mm
12:30 AM 49.1°F9.5°C 39.0°F3.9°C 68% 2.2 mph ENE3.5 kmh ENE 8.3 mph13.4 kmh 30.25 in1024.4 mb 0.00 in0.0 mm 0.00 in0.0 mm 0.00 in0.0 mm
12:29 AM 49.1°F9.5°C 39.0°F3.9°C 68% 2.2 mph ENE3.5 kmh ENE 8.3 mph13.4 kmh 30.25 in1024.4 mb 0.00 in0.0 mm 0.00 in0.0 mm 0.00 in0.0 mm
12:28 AM 49.1°F9.5°C 39.0°F3.9°C 68% 3.8 mph NE6.1 kmh NE 9.2 mph14.8 kmh 30.26 in1024.7 mb 0.00 in0.0 mm 0.00 in0.0 mm 0.00 in0.0 mm
12:27 AM 49.3°F9.6°C 39.2°F4.0°C 68% 3.8 mph NE6.1 kmh NE 9.2 mph14.8 kmh 30.26 in1024.7 mb 0.00 in0.0 mm 0.00 in0.0 mm 0.00 in0.0 mm
12:26 AM 49.3°F9.6°C 39.2°F4.0°C 68% 2.2 mph NE3.5 kmh NE 9.2 mph14.8 kmh 30.26 in1024.7 mb 0.00 in0.0 mm 0.00 in0.0 mm 0.00 in0.0 mm
12:25 AM 49.3°F9.6°C 39.2°F4.0°C 68% 4.5 mph ENE7.2 kmh ENE 9.2 mph14.8 kmh 30.26 in1024.7 mb 0.00 in0.0 mm 0.00 in0.0 mm 0.00 in0.0 mm
12:24 AM 49.3°F9.6°C 39.2°F4.0°C 68% 3.1 mph ENE5.0 kmh ENE 9.8 mph15.8 kmh 30.26 in1024.7 mb 0.00 in0.0 mm 0.00 in0.0 mm 0.00 in0.0 mm
12:23 AM 49.3°F9.6°C 39.2°F4.0°C 68% 5.4 mph E8.7 kmh E 9.8 mph15.8 kmh 30.26 in1024.7 mb 0.00 in0.0 mm 0.00 in0.0 mm 0.00 in0.0 mm
12:22 AM 49.3°F9.6°C 39.2°F4.0°C 68% 3.1 mph E5.0 kmh E 9.8 mph15.8 kmh 30.26 in1024.7 mb 0.00 in0.0 mm 0.00 in0.0 mm 0.00 in0.0 mm
12:21 AM 49.3°F9.6°C 39.2°F4.0°C 68% 4.5 mph ENE7.2 kmh ENE 9.8 mph15.8 kmh 30.25 in1024.4 mb 0.00 in0.0 mm 0.00 in0.0 mm 0.00 in0.0 mm
12:20 AM 49.3°F9.6°C 39.2°F4.0°C 68% 3.8 mph ENE6.1 kmh ENE 9.8 mph15.8 kmh 30.26 in1024.7 mb 0.00 in0.0 mm 0.00 in0.0 mm 0.00 in0.0 mm
12:19 AM 49.3°F9.6°C 39.2°F4.0°C 68% 4.5 mph E7.2 kmh E 9.8 mph15.8 kmh 30.26 in1024.7 mb 0.00 in0.0 mm 0.00 in0.0 mm 0.00 in0.0 mm
12:18 AM 49.3°F9.6°C 39.2°F4.0°C 68% 3.8 mph E6.1 kmh E 9.8 mph15.8 kmh 30.26 in1024.7 mb 0.00 in0.0 mm 0.00 in0.0 mm 0.00 in0.0 mm
12:17 AM 49.3°F9.6°C 39.2°F4.0°C 68% 3.8 mph E6.1 kmh E 9.8 mph15.8 kmh 30.26 in1024.7 mb 0.00 in0.0 mm 0.00 in0.0 mm 0.00 in0.0 mm
12:16 AM 49.5°F9.7°C 39.3°F4.1°C 68% 4.5 mph E7.2 kmh E 9.8 mph15.8 kmh 30.27 in1025.1 mb 0.00 in0.0 mm 0.00 in0.0 mm 0.00 in0.0 mm
12:15 AM 49.5°F9.7°C 39.3°F4.1°C 68% 6.9 mph E11.1 kmh E 9.8 mph15.8 kmh 30.27 in1025.1 mb 0.00 in0.0 mm 0.00 in0.0 mm 0.00 in0.0 mm
12:14 AM 49.5°F9.7°C 39.3°F4.1°C 68% 3.8 mph E6.1 kmh E 9.8 mph15.8 kmh 30.26 in1024.7 mb 0.00 in0.0 mm 0.00 in0.0 mm 0.00 in0.0 mm
12:13 AM 49.5°F9.7°C 39.3°F4.1°C 68% 6.0 mph E9.7 kmh E 9.8 mph15.8 kmh 30.26 in1024.7 mb 0.00 in0.0 mm 0.00 in0.0 mm 0.00 in0.0 mm
12:12 AM 49.5°F9.7°C 39.3°F4.1°C 68% 3.8 mph E6.1 kmh E 9.8 mph15.8 kmh 30.27 in1025.1 mb 0.00 in0.0 mm 0.00 in0.0 mm 0.00 in0.0 mm
12:11 AM 49.5°F9.7°C 39.3°F4.1°C 68% 3.1 mph E5.0 kmh E 9.8 mph15.8 kmh 30.26 in1024.7 mb 0.00 in0.0 mm 0.00 in0.0 mm 0.00 in0.0 mm
12:10 AM 49.5°F9.7°C 39.3°F4.1°C 68% 4.5 mph E7.2 kmh E 9.8 mph15.8 kmh 30.26 in1024.7 mb 0.00 in0.0 mm 0.00 in0.0 mm 0.00 in0.0 mm
12:09 AM 49.5°F9.7°C 39.3°F4.1°C 68% 3.8 mph E6.1 kmh E 9.8 mph15.8 kmh 30.26 in1024.7 mb 0.00 in0.0 mm 0.00 in0.0 mm 0.00 in0.0 mm
12:08 AM 49.6°F9.8°C 39.5°F4.2°C 68% 3.1 mph E5.0 kmh E 9.8 mph15.8 kmh 30.26 in1024.7 mb 0.00 in0.0 mm 0.00 in0.0 mm 0.00 in0.0 mm
12:07 AM 49.6°F9.8°C 39.1°F3.9°C 67% 4.5 mph ESE7.2 kmh ESE 9.8 mph15.8 kmh 30.26 in1024.7 mb 0.00 in0.0 mm 0.00 in0.0 mm 0.00 in0.0 mm
12:06 AM 49.6°F9.8°C 39.1°F3.9°C 67% 3.1 mph ESE5.0 kmh ESE 9.8 mph15.8 kmh 30.26 in1024.7 mb 0.00 in0.0 mm 0.00 in0.0 mm 0.00 in0.0 mm
12:05 AM 49.6°F9.8°C 39.1°F3.9°C 67% 3.1 mph ESE5.0 kmh ESE 9.8 mph15.8 kmh 30.27 in1025.1 mb 0.00 in0.0 mm 0.00 in0.0 mm 0.00 in0.0 mm
12:04 AM 49.6°F9.8°C 39.5°F4.2°C 68% 3.1 mph E5.0 kmh E 9.8 mph15.8 kmh 30.26 in1024.7 mb 0.00 in0.0 mm 0.00 in0.0 mm 0.00 in0.0 mm
12:03 AM 49.6°F9.8°C 39.5°F4.2°C 68% 4.5 mph E7.2 kmh E 9.8 mph15.8 kmh 30.27 in1025.1 mb 0.00 in0.0 mm 0.00 in0.0 mm 0.00 in0.0 mm
12:02 AM 49.6°F9.8°C 39.5°F4.2°C 68% 3.8 mph E6.1 kmh E 9.8 mph15.8 kmh 30.26 in1024.7 mb 0.00 in0.0 mm 0.00 in0.0 mm 0.00 in0.0 mm
12:01 AM 49.6°F9.8°C 39.5°F4.2°C 68% 3.1 mph E5.0 kmh E 8.3 mph13.4 kmh 30.26 in1024.7 mb 0.00 in0.0 mm 0.00 in0.0 mm 0.00 in0.0 mm
12:00 AM 49.8°F9.9°C 39.7°F4.3°C 68% 3.8 mph E6.1 kmh E 8.3 mph13.4 kmh 30.27 in1025.1 mb 0.00 in0.0 mm 0.00 in0.0 mm 0.00 in0.0 mm